sensor_id;sensor_type;location;lat;lon;timestamp;pressure;altitude;pressure_sealevel;temperature;humidity
74218;BME280;62579;47.288;18.646;2022-11-02T00:02:09;100510.00;;;10.24;92.16
74218;BME280;62579;47.288;18.646;2022-11-02T00:04:34;100507.31;;;10.30;91.49
74218;BME280;62579;47.288;18.646;2022-11-02T00:06:59;100514.28;;;10.31;91.30
74218;BME280;62579;47.288;18.646;2022-11-02T00:09:24;100516.19;;;10.25;91.16
74218;BME280;62579;47.288;18.646;2022-11-02T00:11:49;100522.84;;;10.24;91.20
74218;BME280;62579;47.288;18.646;2022-11-02T00:14:14;100529.09;;;10.30;91.03
74218;BME280;62579;47.288;18.646;2022-11-02T00:16:40;100520.12;;;10.24;90.82
74218;BME280;62579;47.288;18.646;2022-11-02T00:19:05;100519.59;;;10.20;90.95
74218;BME280;62579;47.288;18.646;2022-11-02T01:30:15;100493.38;;;9.62;91.47
74218;BME280;62579;47.288;18.646;2022-11-02T01:32:41;100494.50;;;9.55;91.25
74218;BME280;62579;47.288;18.646;2022-11-02T01:35:06;100500.34;;;9.48;91.73
74218;BME280;62579;47.288;18.646;2022-11-02T01:37:31;100504.16;;;9.56;91.64
74218;BME280;62579;47.288;18.646;2022-11-02T01:39:56;100501.03;;;9.63;91.62
74218;BME280;62579;47.288;18.646;2022-11-02T01:42:23;100497.22;;;9.55;91.85
74218;BME280;62579;47.288;18.646;2022-11-02T01:44:48;100494.56;;;9.26;93.60
74218;BME280;62579;47.288;18.646;2022-11-02T01:47:18;100492.03;;;9.37;92.98
74218;BME280;62579;47.288;18.646;2022-11-02T01:49:46;100488.91;;;9.44;92.50
74218;BME280;62579;47.288;18.646;2022-11-02T01:52:13;100480.38;;;9.51;92.16
74218;BME280;62579;47.288;18.646;2022-11-02T01:54:41;100488.31;;;9.55;92.10
74218;BME280;62579;47.288;18.646;2022-11-02T01:57:08;100473.50;;;9.21;93.75
74218;BME280;62579;47.288;18.646;2022-11-02T01:59:44;100489.31;;;9.23;93.66
74218;BME280;62579;47.288;18.646;2022-11-02T02:02:14;100486.31;;;9.35;92.80
74218;BME280;62579;47.288;18.646;2022-11-02T02:04:41;100491.25;;;9.37;92.78
74218;BME280;62579;47.288;18.646;2022-11-02T02:07:07;100487.53;;;9.34;93.17
74218;BME280;62579;47.288;18.646;2022-11-02T02:09:32;100492.78;;;9.38;93.33
74218;BME280;62579;47.288;18.646;2022-11-02T02:11:58;100483.19;;;9.42;93.41
74218;BME280;62579;47.288;18.646;2022-11-02T02:14:23;100485.13;;;9.22;94.73
74218;BME280;62579;47.288;18.646;2022-11-02T02:22:34;100496.88;;;9.48;93.36
74218;BME280;62579;47.288;18.646;2022-11-02T02:30:15;100501.34;;;9.51;93.98
74218;BME280;62579;47.288;18.646;2022-11-02T02:32:44;100506.78;;;9.51;94.25
74218;BME280;62579;47.288;18.646;2022-11-02T02:38:05;100503.72;;;9.43;95.21
74218;BME280;62579;47.288;18.646;2022-11-02T02:40:36;100518.34;;;9.46;94.61
74218;BME280;62579;47.288;18.646;2022-11-02T02:43:07;100512.03;;;9.54;94.35
74218;BME280;62579;47.288;18.646;2022-11-02T02:45:38;100511.75;;;9.52;94.19
74218;BME280;62579;47.288;18.646;2022-11-02T02:48:05;100514.03;;;9.39;94.55
74218;BME280;62579;47.288;18.646;2022-11-02T02:50:33;100515.88;;;9.48;94.00
74218;BME280;62579;47.288;18.646;2022-11-02T02:53:01;100515.88;;;9.48;93.67
74218;BME280;62579;47.288;18.646;2022-11-02T02:55:30;100513.88;;;9.14;94.62
74218;BME280;62579;47.288;18.646;2022-11-02T02:57:56;100527.25;;;9.32;93.88
74218;BME280;62579;47.288;18.646;2022-11-02T03:00:24;100525.37;;;9.38;92.67
74218;BME280;62579;47.288;18.646;2022-11-02T03:02:49;100535.97;;;9.36;92.65
74218;BME280;62579;47.288;18.646;2022-11-02T03:05:32;100530.44;;;9.30;92.75
74218;BME280;62579;47.288;18.646;2022-11-02T03:07:59;100533.81;;;9.25;92.86
74218;BME280;62579;47.288;18.646;2022-11-02T03:12:56;100544.66;;;9.25;93.48
74218;BME280;62579;47.288;18.646;2022-11-02T03:15:25;100537.19;;;9.20;94.15
74218;BME280;62579;47.288;18.646;2022-11-02T03:20:32;100537.63;;;9.33;93.54
74218;BME280;62579;47.288;18.646;2022-11-02T03:23:16;100540.56;;;9.30;93.28
74218;BME280;62579;47.288;18.646;2022-11-02T03:25:47;100535.41;;;9.32;93.53
74218;BME280;62579;47.288;18.646;2022-11-02T03:31:10;100538.75;;;9.41;93.44
74218;BME280;62579;47.288;18.646;2022-11-02T03:36:26;100547.84;;;9.38;93.69
74218;BME280;62579;47.288;18.646;2022-11-02T03:38:56;100542.50;;;9.44;93.58
74218;BME280;62579;47.288;18.646;2022-11-02T03:41:23;100539.41;;;9.51;93.36
74218;BME280;62579;47.288;18.646;2022-11-02T03:43:52;100547.53;;;9.51;93.37
74218;BME280;62579;47.288;18.646;2022-11-02T03:46:19;100548.97;;;9.46;93.77
74218;BME280;62579;47.288;18.646;2022-11-02T03:48:47;100560.88;;;9.49;93.79
74218;BME280;62579;47.288;18.646;2022-11-02T03:51:13;100564.31;;;9.49;93.85
74218;BME280;62579;47.288;18.646;2022-11-02T03:53:45;100557.22;;;9.52;93.98
74218;BME280;62579;47.288;18.646;2022-11-02T03:56:13;100563.38;;;9.52;94.08
74218;BME280;62579;47.288;18.646;2022-11-02T03:58:40;100568.63;;;9.56;93.97
74218;BME280;62579;47.288;18.646;2022-11-02T04:01:06;100565.91;;;9.56;94.09
74218;BME280;62579;47.288;18.646;2022-11-02T04:03:36;100563.44;;;9.58;94.07
74218;BME280;62579;47.288;18.646;2022-11-02T04:06:03;100572.34;;;9.58;94.34
74218;BME280;62579;47.288;18.646;2022-11-02T04:08:31;100573.13;;;9.59;94.88
74218;BME280;62579;47.288;18.646;2022-11-02T04:10:58;100569.00;;;9.49;95.16
74218;BME280;62579;47.288;18.646;2022-11-02T04:13:42;100576.50;;;9.54;95.07
74218;BME280;62579;47.288;18.646;2022-11-02T04:16:26;100569.00;;;9.49;95.43
74218;BME280;62579;47.288;18.646;2022-11-02T04:18:51;100573.28;;;9.55;94.89
74218;BME280;62579;47.288;18.646;2022-11-02T04:21:35;100571.81;;;9.54;95.05
74218;BME280;62579;47.288;18.646;2022-11-02T04:24:00;100575.38;;;9.46;95.62
74218;BME280;62579;47.288;18.646;2022-11-02T04:26:44;100587.62;;;9.56;95.03
74218;BME280;62579;47.288;18.646;2022-11-02T04:29:09;100573.13;;;9.59;94.40
74218;BME280;62579;47.288;18.646;2022-11-02T04:31:35;100583.50;;;9.60;94.26
74218;BME280;62579;47.288;18.646;2022-11-02T04:34:00;100582.84;;;9.65;94.10
74218;BME280;62579;47.288;18.646;2022-11-02T04:36:27;100575.25;;;9.70;94.16
74218;BME280;62579;47.288;18.646;2022-11-02T04:38:53;100586.13;;;9.70;94.40
74218;BME280;62579;47.288;18.646;2022-11-02T04:41:18;100594.53;;;9.72;94.10
74218;BME280;62579;47.288;18.646;2022-11-02T04:44:03;100583.41;;;9.70;94.32
74218;BME280;62579;47.288;18.646;2022-11-02T04:46:29;100587.31;;;9.68;94.94
74218;BME280;62579;47.288;18.646;2022-11-02T04:48:55;100596.81;;;9.73;94.73
74218;BME280;62579;47.288;18.646;2022-11-02T04:51:21;100592.19;;;9.79;94.85
74218;BME280;62579;47.288;18.646;2022-11-02T04:53:47;100587.22;;;9.78;95.23
74218;BME280;62579;47.288;18.646;2022-11-02T04:56:12;100590.69;;;9.78;94.80
74218;BME280;62579;47.288;18.646;2022-11-02T04:58:37;100585.81;;;9.82;94.61
74218;BME280;62579;47.288;18.646;2022-11-02T05:01:04;100584.09;;;9.85;94.84
74218;BME280;62579;47.288;18.646;2022-11-02T05:03:30;100577.72;;;9.88;94.78
74218;BME280;62579;47.288;18.646;2022-11-02T05:05:55;100579.81;;;9.78;95.31
74218;BME280;62579;47.288;18.646;2022-11-02T05:08:20;100590.47;;;9.82;95.10
74218;BME280;62579;47.288;18.646;2022-11-02T05:10:45;100576.44;;;9.83;95.27
74218;BME280;62579;47.288;18.646;2022-11-02T05:13:10;100584.59;;;9.83;95.42
74218;BME280;62579;47.288;18.646;2022-11-02T05:15:39;100590.88;;;9.89;95.03
74218;BME280;62579;47.288;18.646;2022-11-02T05:18:04;100589.34;;;9.88;94.98
74218;BME280;62579;47.288;18.646;2022-11-02T05:20:30;100593.88;;;9.77;96.15
74218;BME280;62579;47.288;18.646;2022-11-02T05:22:55;100595.72;;;9.85;95.78
74218;BME280;62579;47.288;18.646;2022-11-02T05:25:20;100586.91;;;9.90;95.38
74218;BME280;62579;47.288;18.646;2022-11-02T05:27:45;100590.09;;;9.89;95.63
74218;BME280;62579;47.288;18.646;2022-11-02T05:30:10;100585.22;;;9.93;95.32
74218;BME280;62579;47.288;18.646;2022-11-02T05:32:36;100584.47;;;9.92;95.06
74218;BME280;62579;47.288;18.646;2022-11-02T05:35:01;100586.16;;;9.90;95.20
74218;BME280;62579;47.288;18.646;2022-11-02T05:37:27;100594.38;;;9.95;95.20
74218;BME280;62579;47.288;18.646;2022-11-02T05:39:52;100590.94;;;9.95;95.49
74218;BME280;62579;47.288;18.646;2022-11-02T05:42:17;100589.97;;;9.98;95.39
74218;BME280;62579;47.288;18.646;2022-11-02T05:44:42;100591.03;;;10.00;95.30
74218;BME280;62579;47.288;18.646;2022-11-02T05:47:07;100593.53;;;10.04;95.29
74218;BME280;62579;47.288;18.646;2022-11-02T05:52:25;100595.22;;;10.01;94.95
74218;BME280;62579;47.288;18.646;2022-11-02T05:57:40;100596.91;;;9.99;95.53
74218;BME280;62579;47.288;18.646;2022-11-02T06:02:55;100604.41;;;10.04;95.74
74218;BME280;62579;47.288;18.646;2022-11-02T06:05:21;100607.47;;;10.11;95.78
74218;BME280;62579;47.288;18.646;2022-11-02T06:07:46;100604.22;;;10.07;96.08
74218;BME280;62579;47.288;18.646;2022-11-02T06:10:11;100622.31;;;10.10;96.40
74218;BME280;62579;47.288;18.646;2022-11-02T06:12:37;100624.53;;;10.12;96.52
74218;BME280;62579;47.288;18.646;2022-11-02T06:15:03;100615.63;;;10.11;96.62
74218;BME280;62579;47.288;18.646;2022-11-02T06:17:35;100619.09;;;10.12;96.83
74218;BME280;62579;47.288;18.646;2022-11-02T06:20:00;100621.81;;;10.12;97.00
74218;BME280;62579;47.288;18.646;2022-11-02T06:22:25;100638.50;;;10.19;97.08
74218;BME280;62579;47.288;18.646;2022-11-02T06:24:50;100638.25;;;10.17;97.24
74218;BME280;62579;47.288;18.646;2022-11-02T06:27:15;100640.03;;;10.20;97.34
74218;BME280;62579;47.288;18.646;2022-11-02T06:29:41;100637.88;;;10.24;97.24
74218;BME280;62579;47.288;18.646;2022-11-02T06:32:06;100632.97;;;10.29;97.17
74218;BME280;62579;47.288;18.646;2022-11-02T06:34:31;100633.72;;;10.29;97.44
74218;BME280;62579;47.288;18.646;2022-11-02T06:36:56;100630.37;;;10.40;96.95
74218;BME280;62579;47.288;18.646;2022-11-02T06:39:21;100628.59;;;10.37;97.22
74218;BME280;62579;47.288;18.646;2022-11-02T06:41:46;100633.19;;;10.45;96.81
74218;BME280;62579;47.288;18.646;2022-11-02T06:44:12;100634.94;;;10.48;96.62
74218;BME280;62579;47.288;18.646;2022-11-02T06:46:37;100639.63;;;10.48;97.00
74218;BME280;62579;47.288;18.646;2022-11-02T06:49:02;100653.06;;;10.51;97.28
74218;BME280;62579;47.288;18.646;2022-11-02T06:51:27;100655.28;;;10.53;97.32
74218;BME280;62579;47.288;18.646;2022-11-02T06:53:52;100654.53;;;10.52;97.38
74218;BME280;62579;47.288;18.646;2022-11-02T06:56:18;100651.88;;;10.58;97.22
74218;BME280;62579;47.288;18.646;2022-11-02T06:58:43;100652.16;;;10.60;97.17
74218;BME280;62579;47.288;18.646;2022-11-02T07:01:08;100660.13;;;10.63;97.20
74218;BME280;62579;47.288;18.646;2022-11-02T07:03:33;100664.69;;;10.72;97.03
74218;BME280;62579;47.288;18.646;2022-11-02T07:05:59;100665.22;;;10.76;96.91
74218;BME280;62579;47.288;18.646;2022-11-02T07:08:24;100668.50;;;10.80;96.89
74218;BME280;62579;47.288;18.646;2022-11-02T07:10:50;100668.69;;;10.76;97.24
74218;BME280;62579;47.288;18.646;2022-11-02T07:13:15;100664.06;;;10.82;97.22
74218;BME280;62579;47.288;18.646;2022-11-02T07:35:10;100668.25;;;11.04;96.68
74218;BME280;62579;47.288;18.646;2022-11-02T07:37:36;100675.22;;;11.05;96.69
74218;BME280;62579;47.288;18.646;2022-11-02T07:40:02;100662.59;;;11.07;96.66
74218;BME280;62579;47.288;18.646;2022-11-02T07:42:27;100667.56;;;11.09;96.61
74218;BME280;62579;47.288;18.646;2022-11-02T07:44:53;100670.09;;;11.12;96.70
74218;BME280;62579;47.288;18.646;2022-11-02T07:47:18;100673.34;;;11.16;96.90
74218;BME280;62579;47.288;18.646;2022-11-02T07:49:43;100654.00;;;11.14;96.92
74218;BME280;62579;47.288;18.646;2022-11-02T07:52:09;100654.50;;;11.13;97.42
74218;BME280;62579;47.288;18.646;2022-11-02T07:54:34;100665.66;;;11.15;97.41
74218;BME280;62579;47.288;18.646;2022-11-02T07:56:59;100673.19;;;11.25;97.08
74218;BME280;62579;47.288;18.646;2022-11-02T07:59:25;100679.91;;;11.30;96.95
74218;BME280;62579;47.288;18.646;2022-11-02T08:10:23;100685.28;;;11.44;96.89
74218;BME280;62579;47.288;18.646;2022-11-02T08:12:48;100687.31;;;11.50;96.95
74218;BME280;62579;47.288;18.646;2022-11-02T08:15:13;100682.16;;;11.57;96.98
74218;BME280;62579;47.288;18.646;2022-11-02T08:17:38;100675.03;;;11.65;96.75
74218;BME280;62579;47.288;18.646;2022-11-02T08:20:04;100673.16;;;11.71;96.65
74218;BME280;62579;47.288;18.646;2022-11-02T08:22:30;100659.56;;;11.77;97.32
74218;BME280;62579;47.288;18.646;2022-11-02T08:24:55;100659.09;;;11.84;97.31
74218;BME280;62579;47.288;18.646;2022-11-02T08:27:20;100659.66;;;11.88;97.59
74218;BME280;62579;47.288;18.646;2022-11-02T08:29:45;100658.44;;;11.94;97.72
74218;BME280;62579;47.288;18.646;2022-11-02T08:32:11;100654.03;;;12.02;97.47
74218;BME280;62579;47.288;18.646;2022-11-02T08:34:36;100659.03;;;12.10;97.45
74218;BME280;62579;47.288;18.646;2022-11-02T08:37:02;100654.63;;;12.18;97.01
74218;BME280;62579;47.288;18.646;2022-11-02T08:39:27;100652.66;;;12.24;96.94
74218;BME280;62579;47.288;18.646;2022-11-02T08:41:52;100656.66;;;12.23;97.00
74218;BME280;62579;47.288;18.646;2022-11-02T08:44:18;100658.94;;;12.35;96.50
74218;BME280;62579;47.288;18.646;2022-11-02T08:46:43;100647.84;;;12.50;96.45
74218;BME280;62579;47.288;18.646;2022-11-02T08:49:08;100655.41;;;12.72;96.28
74218;BME280;62579;47.288;18.646;2022-11-02T08:51:34;100654.88;;;12.73;95.99
74218;BME280;62579;47.288;18.646;2022-11-02T08:53:59;100654.94;;;12.90;94.96
74218;BME280;62579;47.288;18.646;2022-11-02T08:56:24;100651.75;;;13.02;94.08
74218;BME280;62579;47.288;18.646;2022-11-02T08:58:49;100654.78;;;13.10;94.52
74218;BME280;62579;47.288;18.646;2022-11-02T09:01:14;100653.53;;;13.11;95.87
74218;BME280;62579;47.288;18.646;2022-11-02T09:03:39;100651.03;;;13.07;94.58
74218;BME280;62579;47.288;18.646;2022-11-02T09:06:05;100649.88;;;13.36;93.90
74218;BME280;62579;47.288;18.646;2022-11-02T09:08:30;100636.44;;;13.44;93.47
74218;BME280;62579;47.288;18.646;2022-11-02T09:10:59;100641.66;;;13.53;92.72
74218;BME280;62579;47.288;18.646;2022-11-02T09:13:25;100633.97;;;13.57;92.65
74218;BME280;62579;47.288;18.646;2022-11-02T09:15:51;100635.19;;;13.56;93.50
74218;BME280;62579;47.288;18.646;2022-11-02T09:18:17;100645.16;;;13.70;92.77
74218;BME280;62579;47.288;18.646;2022-11-02T09:20:42;100622.75;;;13.82;93.17
74218;BME280;62579;47.288;18.646;2022-11-02T09:23:07;100616.03;;;13.95;92.03
74218;BME280;62579;47.288;18.646;2022-11-02T09:25:33;100629.19;;;13.96;90.77
74218;BME280;62579;47.288;18.646;2022-11-02T09:27:58;100620.50;;;13.92;91.84
74218;BME280;62579;47.288;18.646;2022-11-02T09:30:24;100613.75;;;14.04;91.21
74218;BME280;62579;47.288;18.646;2022-11-02T09:32:53;100618.97;;;14.13;89.39
74218;BME280;62579;47.288;18.646;2022-11-02T09:35:18;100631.88;;;14.18;88.65
74218;BME280;62579;47.288;18.646;2022-11-02T09:37:44;100627.41;;;14.21;88.79
74218;BME280;62579;47.288;18.646;2022-11-02T09:40:09;100633.37;;;14.30;89.72
74218;BME280;62579;47.288;18.646;2022-11-02T09:45:13;100622.34;;;14.47;89.29
74218;BME280;62579;47.288;18.646;2022-11-02T09:47:44;100621.56;;;14.58;89.39
74218;BME280;62579;47.288;18.646;2022-11-02T09:50:15;100621.78;;;14.71;88.39
74218;BME280;62579;47.288;18.646;2022-11-02T09:52:42;100618.53;;;14.72;88.50
74218;BME280;62579;47.288;18.646;2022-11-02T09:55:11;100616.97;;;14.82;88.23
74218;BME280;62579;47.288;18.646;2022-11-02T09:57:39;100626.13;;;14.90;88.04
74218;BME280;62579;47.288;18.646;2022-11-02T10:00:11;100620.56;;;15.07;87.47
74218;BME280;62579;47.288;18.646;2022-11-02T10:05:23;100621.53;;;15.10;87.17
74218;BME280;62579;47.288;18.646;2022-11-02T10:10:32;100629.19;;;15.22;87.25
74218;BME280;62579;47.288;18.646;2022-11-02T10:13:06;100619.00;;;15.17;87.99
74218;BME280;62579;47.288;18.646;2022-11-02T10:15:40;100619.50;;;15.16;87.87
74218;BME280;62579;47.288;18.646;2022-11-02T10:18:12;100609.28;;;15.16;87.70
74218;BME280;62579;47.288;18.646;2022-11-02T10:20:39;100613.22;;;15.26;87.08
74218;BME280;62579;47.288;18.646;2022-11-02T10:23:10;100611.34;;;15.40;87.06
74218;BME280;62579;47.288;18.646;2022-11-02T10:25:39;100613.53;;;15.52;86.84
74218;BME280;62579;47.288;18.646;2022-11-02T10:28:09;100614.19;;;15.64;87.08
74218;BME280;62579;47.288;18.646;2022-11-02T10:30:36;100618.12;;;15.69;85.02
74218;BME280;62579;47.288;18.646;2022-11-02T10:33:01;100623.19;;;15.89;83.09
74218;BME280;62579;47.288;18.646;2022-11-02T10:35:33;100623.31;;;16.02;83.11
74218;BME280;62579;47.288;18.646;2022-11-02T10:40:52;100619.03;;;16.25;82.36
74218;BME280;62579;47.288;18.646;2022-11-02T10:43:27;100622.00;;;16.27;82.47
74218;BME280;62579;47.288;18.646;2022-11-02T10:48:26;100623.31;;;16.45;81.60
74218;BME280;62579;47.288;18.646;2022-11-02T10:53:20;100616.16;;;16.60;82.49
74218;BME280;62579;47.288;18.646;2022-11-02T10:55:51;100617.75;;;16.50;82.25
74218;BME280;62579;47.288;18.646;2022-11-02T10:58:20;100621.06;;;16.67;81.59
74218;BME280;62579;47.288;18.646;2022-11-02T11:00:47;100609.69;;;16.76;81.05
74218;BME280;62579;47.288;18.646;2022-11-02T11:03:13;100617.72;;;16.93;81.32
74218;BME280;62579;47.288;18.646;2022-11-02T11:08:46;100607.44;;;17.12;79.93
74218;BME280;62579;47.288;18.646;2022-11-02T11:37:05;100601.41;;;18.04;72.40
74218;BME280;62579;47.288;18.646;2022-11-02T11:39:30;100592.31;;;18.09;72.60
74218;BME280;62579;47.288;18.646;2022-11-02T11:41:56;100595.16;;;18.03;71.88
74218;BME280;62579;47.288;18.646;2022-11-02T11:44:21;100601.31;;;17.96;72.49
74218;BME280;62579;47.288;18.646;2022-11-02T11:46:47;100600.97;;;17.99;72.81
74218;BME280;62579;47.288;18.646;2022-11-02T11:49:19;100593.47;;;18.13;71.96
74218;BME280;62579;47.288;18.646;2022-11-02T11:51:47;100580.97;;;18.25;71.25
74218;BME280;62579;47.288;18.646;2022-11-02T11:56:45;100581.34;;;18.42;69.33
74218;BME280;62579;47.288;18.646;2022-11-02T11:59:21;100586.25;;;18.49;69.86
74218;BME280;62579;47.288;18.646;2022-11-02T12:01:48;100580.28;;;18.45;69.67
74218;BME280;62579;47.288;18.646;2022-11-02T12:04:24;100584.22;;;18.63;69.91
74218;BME280;62579;47.288;18.646;2022-11-02T12:12:17;100559.53;;;18.57;68.89
74218;BME280;62579;47.288;18.646;2022-11-02T12:27:40;100537.81;;;18.28;68.83
74218;BME280;62579;47.288;18.646;2022-11-02T12:42:52;100525.44;;;18.68;64.22
74218;BME280;62579;47.288;18.646;2022-11-02T12:53:08;100521.87;;;18.60;61.19
74218;BME280;62579;47.288;18.646;2022-11-02T12:55:41;100524.75;;;18.54;60.82
74218;BME280;62579;47.288;18.646;2022-11-02T12:58:21;100526.97;;;18.56;60.09
74218;BME280;62579;47.288;18.646;2022-11-02T13:00:48;100524.75;;;18.41;61.67
74218;BME280;62579;47.288;18.646;2022-11-02T13:03:21;100524.44;;;18.32;62.84
74218;BME280;62579;47.288;18.646;2022-11-02T13:05:52;100527.22;;;18.32;64.65
74218;BME280;62579;47.288;18.646;2022-11-02T13:08:24;100523.94;;;18.33;65.68
74218;BME280;62579;47.288;18.646;2022-11-02T13:10:56;100522.63;;;18.34;66.13
74218;BME280;62579;47.288;18.646;2022-11-02T13:13:32;100526.69;;;18.33;66.79
74218;BME280;62579;47.288;18.646;2022-11-02T13:15:59;100520.97;;;18.31;67.23
74218;BME280;62579;47.288;18.646;2022-11-02T13:18:47;100519.38;;;18.36;68.29
74218;BME280;62579;47.288;18.646;2022-11-02T13:21:11;100511.84;;;18.36;68.49
74218;BME280;62579;47.288;18.646;2022-11-02T13:23:50;100519.56;;;18.38;68.14
74218;BME280;62579;47.288;18.646;2022-11-02T13:26:34;100511.09;;;18.36;68.58
74218;BME280;62579;47.288;18.646;2022-11-02T13:31:44;100524.69;;;18.34;68.41
74218;BME280;62579;47.288;18.646;2022-11-02T13:34:11;100521.81;;;18.39;67.80
74218;BME280;62579;47.288;18.646;2022-11-02T13:36:39;100518.31;;;18.39;66.71
74218;BME280;62579;47.288;18.646;2022-11-02T13:39:06;100519.44;;;18.43;66.63
74218;BME280;62579;47.288;18.646;2022-11-02T13:51:37;100529.25;;;18.31;66.68
74218;BME280;62579;47.288;18.646;2022-11-02T13:54:06;100531.66;;;18.35;67.24
74218;BME280;62579;47.288;18.646;2022-11-02T13:56:35;100534.34;;;18.14;69.03
74218;BME280;62579;47.288;18.646;2022-11-02T13:59:03;100536.25;;;18.19;68.46
74218;BME280;62579;47.288;18.646;2022-11-02T14:01:30;100539.44;;;18.10;69.21
74218;BME280;62579;47.288;18.646;2022-11-02T14:04:04;100527.78;;;18.17;68.47
74218;BME280;62579;47.288;18.646;2022-11-02T14:06:31;100539.75;;;18.07;68.85
74218;BME280;62579;47.288;18.646;2022-11-02T14:08:59;100538.47;;;18.08;67.85
74218;BME280;62579;47.288;18.646;2022-11-02T14:11:27;100542.19;;;18.10;65.35
74218;BME280;62579;47.288;18.646;2022-11-02T14:26:53;100534.47;;;17.95;67.13
74218;BME280;62579;47.288;18.646;2022-11-02T14:32:04;100531.63;;;17.88;68.91
74218;BME280;62579;47.288;18.646;2022-11-02T14:34:34;100532.69;;;17.85;69.00
74218;BME280;62579;47.288;18.646;2022-11-02T14:39:57;100533.62;;;17.74;69.96
74218;BME280;62579;47.288;18.646;2022-11-02T14:45:22;100530.97;;;17.69;70.50
74218;BME280;62579;47.288;18.646;2022-11-02T14:47:54;100537.00;;;17.67;71.26
74218;BME280;62579;47.288;18.646;2022-11-02T14:50:21;100540.00;;;17.82;68.87
74218;BME280;62579;47.288;18.646;2022-11-02T14:52:55;100540.50;;;17.81;68.88
74218;BME280;62579;47.288;18.646;2022-11-02T14:55:40;100540.50;;;17.81;68.33
74218;BME280;62579;47.288;18.646;2022-11-02T14:58:14;100536.59;;;17.76;68.44
74218;BME280;62579;47.288;18.646;2022-11-02T15:08:24;100542.19;;;17.58;69.82
74218;BME280;62579;47.288;18.646;2022-11-02T15:10:50;100549.56;;;17.50;70.38
74218;BME280;62579;47.288;18.646;2022-11-02T15:26:05;100563.34;;;17.18;71.90
74218;BME280;62579;47.288;18.646;2022-11-02T15:28:31;100569.59;;;17.18;71.95
74218;BME280;62579;47.288;18.646;2022-11-02T15:31:02;100574.44;;;17.12;71.70
74218;BME280;62579;47.288;18.646;2022-11-02T15:35:57;100574.41;;;16.99;71.90
74218;BME280;62579;47.288;18.646;2022-11-02T15:38:26;100576.69;;;16.95;71.82
74218;BME280;62579;47.288;18.646;2022-11-02T15:40:53;100580.47;;;16.92;71.26
74218;BME280;62579;47.288;18.646;2022-11-02T15:48:30;100580.28;;;16.90;70.58
74218;BME280;62579;47.288;18.646;2022-11-02T15:51:08;100578.34;;;16.85;70.38
74218;BME280;62579;47.288;18.646;2022-11-02T16:01:24;100582.81;;;16.69;70.88
74218;BME280;62579;47.288;18.646;2022-11-02T16:03:56;100581.78;;;16.72;70.88
74218;BME280;62579;47.288;18.646;2022-11-02T16:06:27;100583.63;;;16.64;71.29
74218;BME280;62579;47.288;18.646;2022-11-02T16:08:54;100579.19;;;16.61;70.62
74218;BME280;62579;47.288;18.646;2022-11-02T16:11:20;100582.16;;;16.63;70.02
74218;BME280;62579;47.288;18.646;2022-11-02T16:13:46;100583.47;;;16.57;70.52
74218;BME280;62579;47.288;18.646;2022-11-02T16:16:12;100582.03;;;16.50;71.33
74218;BME280;62579;47.288;18.646;2022-11-02T16:18:38;100583.38;;;16.44;71.93
74218;BME280;62579;47.288;18.646;2022-11-02T16:21:12;100590.06;;;16.30;72.78
74218;BME280;62579;47.288;18.646;2022-11-02T16:23:38;100596.37;;;16.19;73.09
74218;BME280;62579;47.288;18.646;2022-11-02T18:09:29;100651.81;;;14.13;74.70
74218;BME280;62579;47.288;18.646;2022-11-02T18:11:55;100653.81;;;14.07;75.47
74218;BME280;62579;47.288;18.646;2022-11-02T18:14:22;100665.50;;;14.08;74.66
74218;BME280;62579;47.288;18.646;2022-11-02T18:16:48;100664.28;;;14.09;74.74
74218;BME280;62579;47.288;18.646;2022-11-02T18:19:14;100656.84;;;13.93;75.57
74218;BME280;62579;47.288;18.646;2022-11-02T18:21:40;100658.59;;;13.79;75.41
74218;BME280;62579;47.288;18.646;2022-11-02T18:24:06;100665.56;;;13.63;75.83
74218;BME280;62579;47.288;18.646;2022-11-02T18:26:31;100661.06;;;13.49;76.05
74218;BME280;62579;47.288;18.646;2022-11-02T18:28:56;100663.53;;;13.31;76.67
74218;BME280;62579;47.288;18.646;2022-11-02T18:31:22;100663.97;;;13.18;77.54
74218;BME280;62579;47.288;18.646;2022-11-02T18:33:47;100658.75;;;13.09;78.21
74218;BME280;62579;47.288;18.646;2022-11-02T18:36:16;100651.03;;;13.07;78.73
74218;BME280;62579;47.288;18.646;2022-11-02T18:38:41;100651.78;;;13.08;78.98
74218;BME280;62579;47.288;18.646;2022-11-02T18:41:07;100660.25;;;13.15;78.92
74218;BME280;62579;47.288;18.646;2022-11-02T18:43:51;100654.56;;;13.19;78.77
74218;BME280;62579;47.288;18.646;2022-11-02T18:46:17;100660.53;;;13.29;78.47
74218;BME280;62579;47.288;18.646;2022-11-02T18:48:42;100656.31;;;13.28;78.51
74218;BME280;62579;47.288;18.646;2022-11-02T18:51:07;100654.06;;;13.32;78.37
74218;BME280;62579;47.288;18.646;2022-11-02T18:53:34;100659.28;;;13.18;78.87
74218;BME280;62579;47.288;18.646;2022-11-02T18:56:03;100661.00;;;13.10;79.12
74218;BME280;62579;47.288;18.646;2022-11-02T18:58:28;100658.00;;;13.08;78.97
74218;BME280;62579;47.288;18.646;2022-11-02T19:00:54;100667.66;;;12.98;79.33
74218;BME280;62579;47.288;18.646;2022-11-02T19:03:19;100657.22;;;13.02;79.08
74218;BME280;62579;47.288;18.646;2022-11-02T19:05:44;100657.94;;;12.92;79.32
74218;BME280;62579;47.288;18.646;2022-11-02T19:08:28;100655.16;;;12.81;79.47
74218;BME280;62579;47.288;18.646;2022-11-02T19:11:12;100663.84;;;12.74;79.38
74218;BME280;62579;47.288;18.646;2022-11-02T19:13:37;100656.81;;;12.61;79.85
74218;BME280;62579;47.288;18.646;2022-11-02T19:16:02;100652.31;;;12.47;79.91